KTMA/TMA METAR and TAF weather

Enter ICAO airport designator
Station Type Date Time Source
KTMA METAR 2020/08/06 00:35 UTC NOAA

KTMA 060035Z AUTO 00000KT 10SM CLR 27/25 A2996 RMK AO2 T02660245 PNO


Station Type Date Time Source
KTMA Decoded METAR 2020/08/06 00:35 UTC NOAA

Station name not available
Aug 05, 2020 - 08:35 PM EDT / 2020.08.06 0035 UTC
Wind: Calm:0
Visibility: 10 mile(s):0
Sky conditions: clear
Temperature: 79.9 F (26.6 C)
Dew Point: 76.1 F (24.5 C)
Relative Humidity: 88%
Pressure (altimeter): 29.96 in. Hg (1014 hPa)
ob: KTMA 060035Z AUTO 00000KT 10SM CLR 27/25 A2996 RMK AO2 T02660245 PNO
cycle: 0

Station Type Date Time Source
KTMA TAF UTC NOAA

Error!

Example: see airport list